New Lisbon, New Jersey
Current Conditions -  °F | °C
As of 12:58 AM on Saturday 20 Dec 2014 (Local Time) from KWRI Reporting Station
Overcast Overcast  
Wind Chill: 31°   Ceiling: 2800
Heat Index: 31°   Visibility: 10mi
Dew Point: 22°   Wind: 1mph
Humidity: 70%   Direction: 300°WNW
Pressure: 30.17"   Gusts: NA
Location:  39.96°N, 74.63°W
Report Text: KWRI 200558Z AUTO 30001KT 10SM OVC028 M01/M06 A3017 RMK AO2 SLP221 T10071056 11007 21018 50004
Loading
Personal Weather Stations






























Interactive Weather Map New forecast layout! Learn more

10-Day Weather Forecast

Advertisements
Track Severe Weather on mobile